sensor_id;sensor_type;location;lat;lon;timestamp;pressure;altitude;pressure_sealevel;temperature;humidity
72226;BME280;60130;52.250;5.048;2023-04-07T00:00:00;670.2;;;8.7;0.0
72226;BME280;60130;52.250;5.048;2023-04-07T00:05:00;670.2;;;8.7;0.0
72226;BME280;60130;52.250;5.048;2023-04-07T00:10:00;670.1;;;8.7;0.0
72226;BME280;60130;52.250;5.048;2023-04-07T00:15:00;670.2;;;8.7;0.0
72226;BME280;60130;52.250;5.048;2023-04-07T00:20:00;670.2;;;8.7;0.0
72226;BME280;60130;52.250;5.048;2023-04-07T00:25:00;670.2;;;8.7;0.0
72226;BME280;60130;52.250;5.048;2023-04-07T00:30:00;670.2;;;8.7;0.0
72226;BME280;60130;52.250;5.048;2023-04-07T00:35:00;670.3;;;8.8;0.0
72226;BME280;60130;52.250;5.048;2023-04-07T00:40:00;670.0;;;8.7;0.0
72226;BME280;60130;52.250;5.048;2023-04-07T00:45:00;670.4;;;8.7;0.0
72226;BME280;60130;52.250;5.048;2023-04-07T00:50:02;670.3;;;8.8;0.0
72226;BME280;60130;52.250;5.048;2023-04-07T00:55:00;670.5;;;8.8;0.0
72226;BME280;60130;52.250;5.048;2023-04-07T01:00:00;670.3;;;8.9;0.0
72226;BME280;60130;52.250;5.048;2023-04-07T01:05:05;670.4;;;8.9;0.0
72226;BME280;60130;52.250;5.048;2023-04-07T01:10:03;670.4;;;8.9;0.0
72226;BME280;60130;52.250;5.048;2023-04-07T01:15:06;670.5;;;9.0;0.0
72226;BME280;60130;52.250;5.048;2023-04-07T01:20:01;670.4;;;8.9;0.0
72226;BME280;60130;52.250;5.048;2023-04-07T01:25:12;670.4;;;8.9;0.0
72226;BME280;60130;52.250;5.048;2023-04-07T01:30:01;670.4;;;8.9;0.0
72226;BME280;60130;52.250;5.048;2023-04-07T01:35:02;670.3;;;8.9;0.0
72226;BME280;60130;52.250;5.048;2023-04-07T01:40:01;670.3;;;8.8;0.0
72226;BME280;60130;52.250;5.048;2023-04-07T01:45:00;670.3;;;8.8;0.0
72226;BME280;60130;52.250;5.048;2023-04-07T01:50:01;670.3;;;8.8;0.0
72226;BME280;60130;52.250;5.048;2023-04-07T01:55:00;670.3;;;8.8;0.0
72226;BME280;60130;52.250;5.048;2023-04-07T02:00:00;670.3;;;8.8;0.0
72226;BME280;60130;52.250;5.048;2023-04-07T02:05:03;670.4;;;8.9;0.0
72226;BME280;60130;52.250;5.048;2023-04-07T02:10:02;670.3;;;8.9;0.0
72226;BME280;60130;52.250;5.048;2023-04-07T02:15:01;670.2;;;8.9;0.0
72226;BME280;60130;52.250;5.048;2023-04-07T02:20:00;670.3;;;8.8;0.0
72226;BME280;60130;52.250;5.048;2023-04-07T02:25:00;670.3;;;8.9;0.0
72226;BME280;60130;52.250;5.048;2023-04-07T02:30:00;670.7;;;9.0;0.0
72226;BME280;60130;52.250;5.048;2023-04-07T02:35:00;670.7;;;8.9;0.0
72226;BME280;60130;52.250;5.048;2023-04-07T02:40:00;670.2;;;9.0;0.0
72226;BME280;60130;52.250;5.048;2023-04-07T02:45:00;670.5;;;9.0;0.0
72226;BME280;60130;52.250;5.048;2023-04-07T02:50:00;670.3;;;9.0;0.0
72226;BME280;60130;52.250;5.048;2023-04-07T02:55:00;670.5;;;9.0;0.0
72226;BME280;60130;52.250;5.048;2023-04-07T03:00:00;670.4;;;8.9;0.0
72226;BME280;60130;52.250;5.048;2023-04-07T03:05:00;670.3;;;8.9;0.0
72226;BME280;60130;52.250;5.048;2023-04-07T03:10:00;670.4;;;8.9;0.0
72226;BME280;60130;52.250;5.048;2023-04-07T03:15:00;670.3;;;8.8;0.0
72226;BME280;60130;52.250;5.048;2023-04-07T03:20:00;670.1;;;8.9;0.0
72226;BME280;60130;52.250;5.048;2023-04-07T03:25:00;670.1;;;8.9;0.0
72226;BME280;60130;52.250;5.048;2023-04-07T03:30:00;670.3;;;8.9;0.0
72226;BME280;60130;52.250;5.048;2023-04-07T03:35:00;670.3;;;8.8;0.0
72226;BME280;60130;52.250;5.048;2023-04-07T03:40:00;670.2;;;8.7;0.0
72226;BME280;60130;52.250;5.048;2023-04-07T03:45:00;670.0;;;8.8;0.0
72226;BME280;60130;52.250;5.048;2023-04-07T03:50:00;670.1;;;8.8;0.0
72226;BME280;60130;52.250;5.048;2023-04-07T03:55:00;670.3;;;8.8;0.0
72226;BME280;60130;52.250;5.048;2023-04-07T04:00:00;670.2;;;8.8;0.0
72226;BME280;60130;52.250;5.048;2023-04-07T04:05:00;670.0;;;8.8;0.0
72226;BME280;60130;52.250;5.048;2023-04-07T04:10:00;670.3;;;8.9;0.0
72226;BME280;60130;52.250;5.048;2023-04-07T04:15:00;670.3;;;8.8;0.0
72226;BME280;60130;52.250;5.048;2023-04-07T04:20:00;670.3;;;8.9;0.0
72226;BME280;60130;52.250;5.048;2023-04-07T04:25:00;670.1;;;8.9;0.0
72226;BME280;60130;52.250;5.048;2023-04-07T04:30:00;670.3;;;8.8;0.0
72226;BME280;60130;52.250;5.048;2023-04-07T04:35:00;670.3;;;8.9;0.0
72226;BME280;60130;52.250;5.048;2023-04-07T04:40:00;670.4;;;8.9;0.0
72226;BME280;60130;52.250;5.048;2023-04-07T04:45:00;670.3;;;8.8;0.0
72226;BME280;60130;52.250;5.048;2023-04-07T04:50:00;670.4;;;8.9;0.0
72226;BME280;60130;52.250;5.048;2023-04-07T04:55:00;670.4;;;8.9;0.0
72226;BME280;60130;52.250;5.048;2023-04-07T05:00:00;670.4;;;8.9;0.0
72226;BME280;60130;52.250;5.048;2023-04-07T05:05:00;670.3;;;8.9;0.0
72226;BME280;60130;52.250;5.048;2023-04-07T05:10:00;670.3;;;8.9;0.0
72226;BME280;60130;52.250;5.048;2023-04-07T05:15:00;670.3;;;8.8;0.0
72226;BME280;60130;52.250;5.048;2023-04-07T05:20:00;670.3;;;8.8;0.0
72226;BME280;60130;52.250;5.048;2023-04-07T05:25:00;670.3;;;8.8;0.0
72226;BME280;60130;52.250;5.048;2023-04-07T05:30:00;670.3;;;8.9;0.0
72226;BME280;60130;52.250;5.048;2023-04-07T05:35:00;670.4;;;8.9;0.0
72226;BME280;60130;52.250;5.048;2023-04-07T05:40:00;670.3;;;9.0;0.0
72226;BME280;60130;52.250;5.048;2023-04-07T05:45:00;670.5;;;9.0;0.0
72226;BME280;60130;52.250;5.048;2023-04-07T05:50:00;670.5;;;9.0;0.0
72226;BME280;60130;52.250;5.048;2023-04-07T05:55:00;670.4;;;8.9;0.0
72226;BME280;60130;52.250;5.048;2023-04-07T06:00:00;670.5;;;9.0;0.0
72226;BME280;60130;52.250;5.048;2023-04-07T06:05:00;670.3;;;9.0;0.0
72226;BME280;60130;52.250;5.048;2023-04-07T06:10:00;670.6;;;9.1;0.0
72226;BME280;60130;52.250;5.048;2023-04-07T06:15:00;670.7;;;9.0;0.0
72226;BME280;60130;52.250;5.048;2023-04-07T06:20:00;670.4;;;8.9;0.0
72226;BME280;60130;52.250;5.048;2023-04-07T06:25:00;670.2;;;8.9;0.0
72226;BME280;60130;52.250;5.048;2023-04-07T06:30:00;670.2;;;8.9;0.0
72226;BME280;60130;52.250;5.048;2023-04-07T06:35:00;670.4;;;9.0;0.0
72226;BME280;60130;52.250;5.048;2023-04-07T06:40:00;670.5;;;9.0;0.0
72226;BME280;60130;52.250;5.048;2023-04-07T06:45:00;670.5;;;9.1;0.0
72226;BME280;60130;52.250;5.048;2023-04-07T06:50:00;670.4;;;9.1;0.0
72226;BME280;60130;52.250;5.048;2023-04-07T06:55:00;670.3;;;9.0;0.0
72226;BME280;60130;52.250;5.048;2023-04-07T07:00:00;670.3;;;9.1;0.0
72226;BME280;60130;52.250;5.048;2023-04-07T07:05:00;670.5;;;9.2;0.0
72226;BME280;60130;52.250;5.048;2023-04-07T07:10:00;670.6;;;9.3;0.0
72226;BME280;60130;52.250;5.048;2023-04-07T07:15:00;670.9;;;9.3;0.0
72226;BME280;60130;52.250;5.048;2023-04-07T07:20:00;670.8;;;9.2;0.0
72226;BME280;60130;52.250;5.048;2023-04-07T07:25:00;671.0;;;9.4;0.0
72226;BME280;60130;52.250;5.048;2023-04-07T07:30:00;670.8;;;9.5;0.0
72226;BME280;60130;52.250;5.048;2023-04-07T07:35:00;671.1;;;9.5;0.0
72226;BME280;60130;52.250;5.048;2023-04-07T07:40:00;671.1;;;9.5;0.0
72226;BME280;60130;52.250;5.048;2023-04-07T07:45:00;670.9;;;9.6;0.0
72226;BME280;60130;52.250;5.048;2023-04-07T07:50:00;671.0;;;9.6;0.0
72226;BME280;60130;52.250;5.048;2023-04-07T07:55:00;670.9;;;9.6;0.0
72226;BME280;60130;52.250;5.048;2023-04-07T08:00:00;671.1;;;9.6;0.0
72226;BME280;60130;52.250;5.048;2023-04-07T08:05:00;671.0;;;9.5;0.0
72226;BME280;60130;52.250;5.048;2023-04-07T08:10:00;671.2;;;9.6;0.0
72226;BME280;60130;52.250;5.048;2023-04-07T08:15:00;671.1;;;9.7;0.0
72226;BME280;60130;52.250;5.048;2023-04-07T08:20:00;671.3;;;9.7;0.0
72226;BME280;60130;52.250;5.048;2023-04-07T08:25:00;671.4;;;9.8;0.0
72226;BME280;60130;52.250;5.048;2023-04-07T08:30:01;671.4;;;10.0;0.0
72226;BME280;60130;52.250;5.048;2023-04-07T08:35:00;671.4;;;9.9;0.0
72226;BME280;60130;52.250;5.048;2023-04-07T08:40:00;671.8;;;10.1;0.0
72226;BME280;60130;52.250;5.048;2023-04-07T08:45:02;671.4;;;10.1;0.0
72226;BME280;60130;52.250;5.048;2023-04-07T08:50:01;671.5;;;10.1;0.0
72226;BME280;60130;52.250;5.048;2023-04-07T08:55:00;671.8;;;10.4;0.0
72226;BME280;60130;52.250;5.048;2023-04-07T09:00:01;672.0;;;10.5;0.0
72226;BME280;60130;52.250;5.048;2023-04-07T09:05:02;672.0;;;10.5;0.0
72226;BME280;60130;52.250;5.048;2023-04-07T09:10:00;671.8;;;10.3;0.0
72226;BME280;60130;52.250;5.048;2023-04-07T09:15:00;671.8;;;10.6;0.0
72226;BME280;60130;52.250;5.048;2023-04-07T09:20:01;672.5;;;10.7;0.0
72226;BME280;60130;52.250;5.048;2023-04-07T09:25:08;672.2;;;10.6;0.0
72226;BME280;60130;52.250;5.048;2023-04-07T09:30:10;671.6;;;10.4;0.0
72226;BME280;60130;52.250;5.048;2023-04-07T09:35:00;671.8;;;10.4;0.0
72226;BME280;60130;52.250;5.048;2023-04-07T09:40:00;672.2;;;10.6;0.0
72226;BME280;60130;52.250;5.048;2023-04-07T09:45:00;672.3;;;10.8;0.0
72226;BME280;60130;52.250;5.048;2023-04-07T09:50:00;672.7;;;10.8;0.0
72226;BME280;60130;52.250;5.048;2023-04-07T09:55:00;672.2;;;10.6;0.0
72226;BME280;60130;52.250;5.048;2023-04-07T10:00:01;672.2;;;10.7;0.0
72226;BME280;60130;52.250;5.048;2023-04-07T10:05:00;672.2;;;10.7;0.0
72226;BME280;60130;52.250;5.048;2023-04-07T10:10:00;672.1;;;10.8;0.0
72226;BME280;60130;52.250;5.048;2023-04-07T10:15:00;672.7;;;11.0;0.0
72226;BME280;60130;52.250;5.048;2023-04-07T10:20:01;673.0;;;11.3;0.0
72226;BME280;60130;52.250;5.048;2023-04-07T10:25:05;672.8;;;11.2;0.0
72226;BME280;60130;52.250;5.048;2023-04-07T10:30:00;672.5;;;10.8;0.0
72226;BME280;60130;52.250;5.048;2023-04-07T10:35:00;672.1;;;10.6;0.0
72226;BME280;60130;52.250;5.048;2023-04-07T10:45:00;672.5;;;10.8;0.0
72226;BME280;60130;52.250;5.048;2023-04-07T10:50:14;672.5;;;11.1;0.0
72226;BME280;60130;52.250;5.048;2023-04-07T11:00:13;672.5;;;10.9;0.0
72226;BME280;60130;52.250;5.048;2023-04-07T11:05:00;672.4;;;10.8;0.0
72226;BME280;60130;52.250;5.048;2023-04-07T11:10:08;672.2;;;10.8;0.0
72226;BME280;60130;52.250;5.048;2023-04-07T11:15:18;672.7;;;11.0;0.0
72226;BME280;60130;52.250;5.048;2023-04-07T11:20:00;672.8;;;11.1;0.0
72226;BME280;60130;52.250;5.048;2023-04-07T11:25:00;673.3;;;11.4;0.0
72226;BME280;60130;52.250;5.048;2023-04-07T11:30:00;672.9;;;11.3;0.0
72226;BME280;60130;52.250;5.048;2023-04-07T11:35:04;672.7;;;11.1;0.0
72226;BME280;60130;52.250;5.048;2023-04-07T11:40:00;672.4;;;10.8;0.0
72226;BME280;60130;52.250;5.048;2023-04-07T11:45:00;672.4;;;10.8;0.0
72226;BME280;60130;52.250;5.048;2023-04-07T11:50:00;672.2;;;10.9;0.0
72226;BME280;60130;52.250;5.048;2023-04-07T11:55:00;672.3;;;10.8;0.0
72226;BME280;60130;52.250;5.048;2023-04-07T12:00:09;672.3;;;10.7;0.0
72226;BME280;60130;52.250;5.048;2023-04-07T12:05:00;672.5;;;10.9;0.0
72226;BME280;60130;52.250;5.048;2023-04-07T12:10:17;672.8;;;11.1;0.0
72226;BME280;60130;52.250;5.048;2023-04-07T12:15:00;672.7;;;11.1;0.0
72226;BME280;60130;52.250;5.048;2023-04-07T12:20:00;672.5;;;10.9;0.0
72226;BME280;60130;52.250;5.048;2023-04-07T12:25:00;672.4;;;11.0;0.0
72226;BME280;60130;52.250;5.048;2023-04-07T12:30:00;672.7;;;11.1;0.0
72226;BME280;60130;52.250;5.048;2023-04-07T12:35:00;672.9;;;11.1;0.0
72226;BME280;60130;52.250;5.048;2023-04-07T12:40:00;672.4;;;11.0;0.0
72226;BME280;60130;52.250;5.048;2023-04-07T12:45:00;672.8;;;11.0;0.0
72226;BME280;60130;52.250;5.048;2023-04-07T12:50:00;672.2;;;10.8;0.0
72226;BME280;60130;52.250;5.048;2023-04-07T12:55:00;672.5;;;10.9;0.0
72226;BME280;60130;52.250;5.048;2023-04-07T13:00:00;672.5;;;10.9;0.0
72226;BME280;60130;52.250;5.048;2023-04-07T13:05:00;672.3;;;10.6;0.0
72226;BME280;60130;52.250;5.048;2023-04-07T13:10:00;672.2;;;10.4;0.0
72226;BME280;60130;52.250;5.048;2023-04-07T13:15:00;671.9;;;10.4;0.0
72226;BME280;60130;52.250;5.048;2023-04-07T13:20:00;671.9;;;10.4;0.0
72226;BME280;60130;52.250;5.048;2023-04-07T13:25:00;672.2;;;10.5;0.0
72226;BME280;60130;52.250;5.048;2023-04-07T13:30:00;672.0;;;10.6;0.0
72226;BME280;60130;52.250;5.048;2023-04-07T13:35:00;672.0;;;10.5;0.0
72226;BME280;60130;52.250;5.048;2023-04-07T13:40:00;672.1;;;10.8;0.0
72226;BME280;60130;52.250;5.048;2023-04-07T13:45:00;672.4;;;10.6;0.0
72226;BME280;60130;52.250;5.048;2023-04-07T13:50:01;672.2;;;10.5;0.0
72226;BME280;60130;52.250;5.048;2023-04-07T13:55:00;672.1;;;10.6;0.0
72226;BME280;60130;52.250;5.048;2023-04-07T14:00:00;672.2;;;10.6;0.0
72226;BME280;60130;52.250;5.048;2023-04-07T14:05:00;672.1;;;10.6;0.0
72226;BME280;60130;52.250;5.048;2023-04-07T14:10:00;672.0;;;10.6;0.0
72226;BME280;60130;52.250;5.048;2023-04-07T14:15:00;672.1;;;10.6;0.0
72226;BME280;60130;52.250;5.048;2023-04-07T14:20:00;672.1;;;10.4;0.0
72226;BME280;60130;52.250;5.048;2023-04-07T14:25:00;672.1;;;10.3;0.0
72226;BME280;60130;52.250;5.048;2023-04-07T14:30:00;671.8;;;10.3;0.0
72226;BME280;60130;52.250;5.048;2023-04-07T14:35:00;671.5;;;10.2;0.0
72226;BME280;60130;52.250;5.048;2023-04-07T14:40:00;671.7;;;10.3;0.0
72226;BME280;60130;52.250;5.048;2023-04-07T14:45:00;671.5;;;10.2;0.0
72226;BME280;60130;52.250;5.048;2023-04-07T14:50:00;671.5;;;10.1;0.0
72226;BME280;60130;52.250;5.048;2023-04-07T14:55:00;671.8;;;10.1;0.0
72226;BME280;60130;52.250;5.048;2023-04-07T15:00:02;671.6;;;10.1;0.0
72226;BME280;60130;52.250;5.048;2023-04-07T15:05:00;671.3;;;10.1;0.0
72226;BME280;60130;52.250;5.048;2023-04-07T15:10:00;671.6;;;10.2;0.0
72226;BME280;60130;52.250;5.048;2023-04-07T15:15:00;671.5;;;10.0;0.0
72226;BME280;60130;52.250;5.048;2023-04-07T15:20:00;671.2;;;10.0;0.0
72226;BME280;60130;52.250;5.048;2023-04-07T15:25:00;671.3;;;9.9;0.0
72226;BME280;60130;52.250;5.048;2023-04-07T15:30:00;671.4;;;9.8;0.0
72226;BME280;60130;52.250;5.048;2023-04-07T15:35:00;671.7;;;10.0;0.0
72226;BME280;60130;52.250;5.048;2023-04-07T15:40:00;671.6;;;10.1;0.0
72226;BME280;60130;52.250;5.048;2023-04-07T15:45:00;671.7;;;10.2;0.0
72226;BME280;60130;52.250;5.048;2023-04-07T15:50:00;671.9;;;10.4;0.0
72226;BME280;60130;52.250;5.048;2023-04-07T15:55:00;672.1;;;10.6;0.0
72226;BME280;60130;52.250;5.048;2023-04-07T16:00:00;672.2;;;10.6;0.0
72226;BME280;60130;52.250;5.048;2023-04-07T16:05:00;672.2;;;10.6;0.0
72226;BME280;60130;52.250;5.048;2023-04-07T16:10:00;672.0;;;10.5;0.0
72226;BME280;60130;52.250;5.048;2023-04-07T16:15:00;672.1;;;10.6;0.0
72226;BME280;60130;52.250;5.048;2023-04-07T16:20:00;672.2;;;10.7;0.0
72226;BME280;60130;52.250;5.048;2023-04-07T16:25:00;672.2;;;10.7;0.0
72226;BME280;60130;52.250;5.048;2023-04-07T16:30:01;672.2;;;10.7;0.0
72226;BME280;60130;52.250;5.048;2023-04-07T16:35:00;671.8;;;10.6;0.0
72226;BME280;60130;52.250;5.048;2023-04-07T16:40:00;671.8;;;10.6;0.0
72226;BME280;60130;52.250;5.048;2023-04-07T16:45:00;672.0;;;10.7;0.0
72226;BME280;60130;52.250;5.048;2023-04-07T16:50:01;672.3;;;10.8;0.0
72226;BME280;60130;52.250;5.048;2023-04-07T16:55:00;672.3;;;10.8;0.0
72226;BME280;60130;52.250;5.048;2023-04-07T17:00:00;672.3;;;10.8;0.0
72226;BME280;60130;52.250;5.048;2023-04-07T17:05:00;672.2;;;10.9;0.0
72226;BME280;60130;52.250;5.048;2023-04-07T17:10:00;672.4;;;10.9;0.0
72226;BME280;60130;52.250;5.048;2023-04-07T17:15:00;672.4;;;10.9;0.0
72226;BME280;60130;52.250;5.048;2023-04-07T17:20:00;672.5;;;10.9;0.0
72226;BME280;60130;52.250;5.048;2023-04-07T17:25:00;672.5;;;10.9;0.0
72226;BME280;60130;52.250;5.048;2023-04-07T17:30:00;672.2;;;10.9;0.0
72226;BME280;60130;52.250;5.048;2023-04-07T17:35:00;672.4;;;10.9;0.0
72226;BME280;60130;52.250;5.048;2023-04-07T17:40:00;672.8;;;10.9;0.0
72226;BME280;60130;52.250;5.048;2023-04-07T17:45:00;672.3;;;10.8;0.0
72226;BME280;60130;52.250;5.048;2023-04-07T17:50:00;672.4;;;10.7;0.0
72226;BME280;60130;52.250;5.048;2023-04-07T17:55:00;672.1;;;10.6;0.0
72226;BME280;60130;52.250;5.048;2023-04-07T18:00:00;671.8;;;10.5;0.0
72226;BME280;60130;52.250;5.048;2023-04-07T18:05:00;671.9;;;10.6;0.0
72226;BME280;60130;52.250;5.048;2023-04-07T18:10:00;672.3;;;10.6;0.0
72226;BME280;60130;52.250;5.048;2023-04-07T18:15:00;672.0;;;10.5;0.0
72226;BME280;60130;52.250;5.048;2023-04-07T18:20:00;672.0;;;10.5;0.0
72226;BME280;60130;52.250;5.048;2023-04-07T18:25:00;671.8;;;10.6;0.0
72226;BME280;60130;52.250;5.048;2023-04-07T18:30:00;671.8;;;10.5;0.0
72226;BME280;60130;52.250;5.048;2023-04-07T18:35:00;672.1;;;10.6;0.0
72226;BME280;60130;52.250;5.048;2023-04-07T18:40:00;672.1;;;10.6;0.0
72226;BME280;60130;52.250;5.048;2023-04-07T18:45:00;672.1;;;10.6;0.0
72226;BME280;60130;52.250;5.048;2023-04-07T18:50:00;671.9;;;10.4;0.0
72226;BME280;60130;52.250;5.048;2023-04-07T18:55:00;671.6;;;10.4;0.0
72226;BME280;60130;52.250;5.048;2023-04-07T19:00:00;671.8;;;10.4;0.0
72226;BME280;60130;52.250;5.048;2023-04-07T19:05:00;671.6;;;10.4;0.0
72226;BME280;60130;52.250;5.048;2023-04-07T19:10:00;671.8;;;10.2;0.0
72226;BME280;60130;52.250;5.048;2023-04-07T19:15:00;671.4;;;10.0;0.0
72226;BME280;60130;52.250;5.048;2023-04-07T19:20:00;671.4;;;10.0;0.0
72226;BME280;60130;52.250;5.048;2023-04-07T19:25:00;671.1;;;9.9;0.0
72226;BME280;60130;52.250;5.048;2023-04-07T19:30:00;671.4;;;10.0;0.0
72226;BME280;60130;52.250;5.048;2023-04-07T19:35:00;671.3;;;9.9;0.0
72226;BME280;60130;52.250;5.048;2023-04-07T19:40:00;671.1;;;10.0;0.0
72226;BME280;60130;52.250;5.048;2023-04-07T19:45:00;671.5;;;10.0;0.0
72226;BME280;60130;52.250;5.048;2023-04-07T19:50:00;671.5;;;10.1;0.0
72226;BME280;60130;52.250;5.048;2023-04-07T19:55:01;671.4;;;10.1;0.0
72226;BME280;60130;52.250;5.048;2023-04-07T20:00:00;671.4;;;10.0;0.0
72226;BME280;60130;52.250;5.048;2023-04-07T20:05:00;671.2;;;9.9;0.0
72226;BME280;60130;52.250;5.048;2023-04-07T20:10:00;671.2;;;9.8;0.0
72226;BME280;60130;52.250;5.048;2023-04-07T20:15:00;671.1;;;9.7;0.0
72226;BME280;60130;52.250;5.048;2023-04-07T20:20:00;671.1;;;9.7;0.0
72226;BME280;60130;52.250;5.048;2023-04-07T20:25:00;671.1;;;9.8;0.0
72226;BME280;60130;52.250;5.048;2023-04-07T20:30:00;671.0;;;9.8;0.0
72226;BME280;60130;52.250;5.048;2023-04-07T20:35:01;671.3;;;9.9;0.0
72226;BME280;60130;52.250;5.048;2023-04-07T20:40:00;671.6;;;10.0;0.0
72226;BME280;60130;52.250;5.048;2023-04-07T20:45:00;671.3;;;10.1;0.0
72226;BME280;60130;52.250;5.048;2023-04-07T20:50:00;671.4;;;10.2;0.0
72226;BME280;60130;52.250;5.048;2023-04-07T20:55:00;671.5;;;10.1;0.0
72226;BME280;60130;52.250;5.048;2023-04-07T21:00:00;671.7;;;10.3;0.0
72226;BME280;60130;52.250;5.048;2023-04-07T21:05:00;671.5;;;10.3;0.0
72226;BME280;60130;52.250;5.048;2023-04-07T21:10:00;671.6;;;10.4;0.0
72226;BME280;60130;52.250;5.048;2023-04-07T21:15:00;671.8;;;10.3;0.0
72226;BME280;60130;52.250;5.048;2023-04-07T21:20:00;671.8;;;10.4;0.0
72226;BME280;60130;52.250;5.048;2023-04-07T21:25:00;671.5;;;10.2;0.0
72226;BME280;60130;52.250;5.048;2023-04-07T21:30:02;671.7;;;10.2;0.0
72226;BME280;60130;52.250;5.048;2023-04-07T21:35:00;671.6;;;10.2;0.0
72226;BME280;60130;52.250;5.048;2023-04-07T21:40:00;671.3;;;10.1;0.0
72226;BME280;60130;52.250;5.048;2023-04-07T21:45:00;671.5;;;10.0;0.0
72226;BME280;60130;52.250;5.048;2023-04-07T21:50:00;671.4;;;10.0;0.0
72226;BME280;60130;52.250;5.048;2023-04-07T21:55:00;671.3;;;9.9;0.0
72226;BME280;60130;52.250;5.048;2023-04-07T22:00:00;671.2;;;9.8;0.0
72226;BME280;60130;52.250;5.048;2023-04-07T22:05:00;671.0;;;9.8;0.0
72226;BME280;60130;52.250;5.048;2023-04-07T22:10:00;671.2;;;9.8;0.0
72226;BME280;60130;52.250;5.048;2023-04-07T22:15:00;671.2;;;9.9;0.0
72226;BME280;60130;52.250;5.048;2023-04-07T22:20:00;671.3;;;9.9;0.0
72226;BME280;60130;52.250;5.048;2023-04-07T22:25:00;671.4;;;9.9;0.0
72226;BME280;60130;52.250;5.048;2023-04-07T22:30:00;671.2;;;9.8;0.0
72226;BME280;60130;52.250;5.048;2023-04-07T22:35:00;671.1;;;9.7;0.0
72226;BME280;60130;52.250;5.048;2023-04-07T22:40:00;671.0;;;9.6;0.0
72226;BME280;60130;52.250;5.048;2023-04-07T22:45:00;670.9;;;9.5;0.0
72226;BME280;60130;52.250;5.048;2023-04-07T22:50:00;671.0;;;9.4;0.0
72226;BME280;60130;52.250;5.048;2023-04-07T22:55:00;670.8;;;9.5;0.0
72226;BME280;60130;52.250;5.048;2023-04-07T23:00:00;670.6;;;9.3;0.0
72226;BME280;60130;52.250;5.048;2023-04-07T23:05:00;670.5;;;9.2;0.0
72226;BME280;60130;52.250;5.048;2023-04-07T23:10:00;670.8;;;9.2;0.0
72226;BME280;60130;52.250;5.048;2023-04-07T23:15:00;670.7;;;9.4;0.0
72226;BME280;60130;52.250;5.048;2023-04-07T23:20:00;670.9;;;9.4;0.0
72226;BME280;60130;52.250;5.048;2023-04-07T23:25:00;670.5;;;9.2;0.0
72226;BME280;60130;52.250;5.048;2023-04-07T23:30:00;670.7;;;9.4;0.0
72226;BME280;60130;52.250;5.048;2023-04-07T23:35:00;670.5;;;9.4;0.0
72226;BME280;60130;52.250;5.048;2023-04-07T23:40:00;670.5;;;9.3;0.0
72226;BME280;60130;52.250;5.048;2023-04-07T23:45:00;670.9;;;9.4;0.0
72226;BME280;60130;52.250;5.048;2023-04-07T23:50:00;670.8;;;9.5;0.0
72226;BME280;60130;52.250;5.048;2023-04-07T23:55:00;670.8;;;9.4;0.0
